createdAt,value
2019-04-03T00:01:44.384Z,47.44
2019-04-03T00:04:12.889Z,47.33
2019-04-03T00:06:41.360Z,47.74
2019-04-03T00:09:09.634Z,48.19
2019-04-03T00:11:57.494Z,48.41
2019-04-03T00:14:25.349Z,48.55
2019-04-03T00:17:33.654Z,48.75
2019-04-03T00:20:02.236Z,49.13
2019-04-03T00:22:30.121Z,49.66
2019-04-03T00:24:58.795Z,49.59
2019-04-03T00:27:27.092Z,49.59
2019-04-03T00:29:55.875Z,49.65
2019-04-03T00:32:24.152Z,49.20
2019-04-03T00:34:53.430Z,49.85
2019-04-03T00:38:02.467Z,49.69
2019-04-03T00:40:30.750Z,49.64
2019-04-03T00:42:58.930Z,50.42
2019-04-03T00:51:08.804Z,51.19
2019-04-03T00:53:36.585Z,50.77
2019-04-03T00:56:05.134Z,51.58
2019-04-03T00:59:15.342Z,52.78
2019-04-03T01:02:02.615Z,52.75
2019-04-03T01:07:29.955Z,53.99
2019-04-03T01:09:59.557Z,55.21
2019-04-03T01:12:30.639Z,55.17
2019-04-03T01:18:09.155Z,54.74
2019-04-03T01:20:37.524Z,54.84
2019-04-03T01:26:26.454Z,54.33
2019-04-03T01:29:34.703Z,53.54
2019-04-03T01:32:03.184Z,53.83
2019-04-03T01:34:31.415Z,52.94
2019-04-03T01:36:59.748Z,53.36
2019-04-03T01:39:28.268Z,53.80
2019-04-03T01:41:56.149Z,53.92
2019-04-03T01:44:25.297Z,54.38
2019-04-03T01:46:53.598Z,54.90
2019-04-03T01:52:50.051Z,55.13
2019-04-03T01:55:18.665Z,55.17
2019-04-03T01:57:47.233Z,55.77
2019-04-03T02:00:15.389Z,56.31
2019-04-03T02:02:43.529Z,56.63
2019-04-03T02:05:12.737Z,56.53
2019-04-03T02:07:53.205Z,57.04
2019-04-03T02:13:41.349Z,58.53
2019-04-03T02:16:18.091Z,59.78
2019-04-03T02:18:46.363Z,60.27
2019-04-03T02:21:14.642Z,62.41
2019-04-03T02:23:42.852Z,61.83
2019-04-03T02:26:51.542Z,64.45
2019-04-03T02:29:19.515Z,66.30
2019-04-03T02:32:27.795Z,67.95
2019-04-03T02:34:56.213Z,69.24
2019-04-03T02:40:26.462Z,68.77
2019-04-03T02:43:02.568Z,72.01
2019-04-03T02:45:30.713Z,71.99
2019-04-03T02:47:58.710Z,72.51
2019-04-03T02:51:07.371Z,74.36
2019-04-03T02:54:06.653Z,74.39
2019-04-03T02:56:35.272Z,75.56
2019-04-03T02:59:43.486Z,77.12
2019-04-03T03:02:30.752Z,77.58
2019-04-03T03:04:59.021Z,78.82
2019-04-03T03:07:26.655Z,78.75
2019-04-03T03:13:23.212Z,79.50
2019-04-03T03:22:17.234Z,79.63
2019-04-03T03:25:34.324Z,77.62
2019-04-03T03:42:54.471Z,83.28
2019-04-03T03:46:03.212Z,83.60
2019-04-03T03:51:52.866Z,84.36
2019-04-03T03:55:01.404Z,84.13
2019-04-03T04:06:35.910Z,84.62
2019-04-03T04:09:44.151Z,84.66
2019-04-03T04:12:12.977Z,85.09
2019-04-03T04:20:51.235Z,85.64
2019-04-03T04:23:59.797Z,86.10
2019-04-03T04:29:29.401Z,87.08
2019-04-03T04:35:05.963Z,86.65
2019-04-03T04:37:33.856Z,87.00
2019-04-03T04:40:02.379Z,87.40
2019-04-03T04:42:31.399Z,87.59
2019-04-03T04:45:40.805Z,87.83
2019-04-03T04:48:18.409Z,87.84
2019-04-03T04:50:55.082Z,87.82
2019-04-03T04:53:42.342Z,88.19
2019-04-03T04:56:11.027Z,88.42
2019-04-03T04:58:40.748Z,88.47
2019-04-03T05:01:19.266Z,88.29
2019-04-03T05:03:47.857Z,88.28
2019-04-03T05:06:16.446Z,88.45
2019-04-03T05:11:46.188Z,88.27
2019-04-03T05:14:13.600Z,87.85
2019-04-03T05:23:11.840Z,88.31
2019-04-03T05:25:40.382Z,88.64
2019-04-03T05:28:20.015Z,88.37
2019-04-03T05:30:47.835Z,87.90
2019-04-03T05:33:16.495Z,86.79
2019-04-03T05:38:23.989Z,85.31
2019-04-03T05:40:52.672Z,85.58
2019-04-03T05:43:20.781Z,85.34
2019-04-03T05:46:29.113Z,84.71
2019-04-03T05:48:57.271Z,84.93
2019-04-03T05:52:05.637Z,85.89
2019-04-03T05:54:34.247Z,85.68
2019-04-03T05:57:02.979Z,85.06
2019-04-03T05:59:33.675Z,84.24
2019-04-03T06:02:14.580Z,83.69
2019-04-03T06:04:48.098Z,82.80
2019-04-03T06:07:18.238Z,81.75
2019-04-03T06:09:46.659Z,81.63
2019-04-03T06:12:18.101Z,80.47
2019-04-03T06:14:52.104Z,80.55
2019-04-03T06:17:39.479Z,78.76
2019-04-03T06:20:38.571Z,79.81
2019-04-03T06:29:29.387Z,79.65
2019-04-03T06:31:58.476Z,78.97
2019-04-03T06:34:26.907Z,79.14
2019-04-03T06:37:02.893Z,79.23
2019-04-03T06:42:31.011Z,78.42
2019-04-03T06:44:59.183Z,78.21
2019-04-03T06:47:34.895Z,76.51
2019-04-03T06:50:03.397Z,76.25
2019-04-03T06:52:31.955Z,75.72
2019-04-03T06:55:40.553Z,75.79
2019-04-03T06:58:40.394Z,76.37
2019-04-03T07:01:29.505Z,76.19
2019-04-03T07:03:58.168Z,75.79
2019-04-03T07:06:25.736Z,75.33
2019-04-03T07:09:36.608Z,75.35
2019-04-03T07:12:15.723Z,75.40
2019-04-03T07:14:50.191Z,75.01
2019-04-03T07:17:18.507Z,73.63
2019-04-03T07:19:47.356Z,67.88
2019-04-03T07:22:28.230Z,69.01
2019-04-03T07:25:43.360Z,68.05
2019-04-03T07:28:10.942Z,68.40
2019-04-03T07:30:38.446Z,68.49
2019-04-03T07:33:07.088Z,64.32
2019-04-03T07:36:15.700Z,67.08
2019-04-03T07:38:44.447Z,66.19
2019-04-03T07:41:22.089Z,64.13
2019-04-03T07:43:58.124Z,64.23
2019-04-03T07:46:33.247Z,64.88
2019-04-03T07:49:02.186Z,66.13
2019-04-03T07:54:50.741Z,63.09
2019-04-03T08:02:59.180Z,59.31
2019-04-03T08:05:30.154Z,59.71
2019-04-03T08:08:04.555Z,57.77
2019-04-03T08:11:15.211Z,53.80
2019-04-03T08:13:50.086Z,53.76
2019-04-03T08:16:18.673Z,56.50
2019-04-03T08:18:55.292Z,58.13
2019-04-03T08:21:22.535Z,56.98
2019-04-03T08:23:50.738Z,56.23
2019-04-03T08:26:19.869Z,55.65
2019-04-03T08:28:48.521Z,56.45
2019-04-03T08:34:18.824Z,58.20
2019-04-03T08:36:46.826Z,58.03
2019-04-03T08:39:15.991Z,57.99
2019-04-03T08:41:51.206Z,57.82
2019-04-03T08:44:19.675Z,57.96
2019-04-03T08:46:59.893Z,58.32
2019-04-03T08:49:28.389Z,57.80
2019-04-03T08:51:56.005Z,59.17
2019-04-03T08:54:24.136Z,61.24
2019-04-03T08:57:32.371Z,61.49
2019-04-03T09:00:01.341Z,60.92
2019-04-03T09:02:30.798Z,59.82
2019-04-03T09:04:59.350Z,59.58
2019-04-03T09:08:07.958Z,59.38
2019-04-03T09:13:48.836Z,59.21
2019-04-03T09:16:17.388Z,59.99
2019-04-03T09:19:25.290Z,58.14
2019-04-03T09:21:54.150Z,57.96
2019-04-03T09:24:22.778Z,58.57
2019-04-03T09:26:51.306Z,58.24
2019-04-03T09:29:19.923Z,57.75
2019-04-03T09:31:50.650Z,57.79
2019-04-03T09:34:20.356Z,57.45
2019-04-03T09:36:57.998Z,56.58
2019-04-03T09:39:26.226Z,57.17
2019-04-03T09:41:54.442Z,56.97
2019-04-03T09:44:25.738Z,55.31
2019-04-03T09:46:53.070Z,56.16
2019-04-03T09:49:32.543Z,55.55
2019-04-03T09:52:01.137Z,56.71
2019-04-03T09:54:29.666Z,57.40
2019-04-03T09:57:04.453Z,56.70
2019-04-03T10:00:10.567Z,54.34
2019-04-03T10:02:44.409Z,54.75
2019-04-03T10:05:53.130Z,50.38
2019-04-03T10:11:22.207Z,49.11
2019-04-03T10:13:56.538Z,48.81
2019-04-03T10:16:29.928Z,50.59
2019-04-03T10:18:58.520Z,50.53
2019-04-03T10:21:26.781Z,47.63
2019-04-03T10:23:55.703Z,49.35
2019-04-03T10:26:23.681Z,51.23
2019-04-03T10:28:51.943Z,51.82
2019-04-03T10:31:19.916Z,48.80
2019-04-03T10:33:48.178Z,50.58
2019-04-03T10:36:17.664Z,48.77
2019-04-03T10:38:56.512Z,49.46
2019-04-03T10:41:27.676Z,52.84
2019-04-03T10:43:54.802Z,54.58
2019-04-03T10:46:22.677Z,55.41
2019-04-03T10:48:50.953Z,56.54
2019-04-03T10:51:19.537Z,55.86
2019-04-03T10:53:50.381Z,55.73
2019-04-03T10:56:23.796Z,56.52
2019-04-03T10:58:52.037Z,57.21
2019-04-03T11:01:20.338Z,57.48
2019-04-03T11:03:48.687Z,59.04
2019-04-03T11:06:16.969Z,57.07
2019-04-03T11:08:44.783Z,58.16
2019-04-03T11:11:13.069Z,60.35
2019-04-03T11:13:41.446Z,60.58
2019-04-03T11:16:09.633Z,58.51
2019-04-03T11:18:38.020Z,56.24
2019-04-03T11:21:06.875Z,57.50
2019-04-03T11:23:48.198Z,57.94
2019-04-03T11:26:18.387Z,58.15
2019-04-03T11:28:46.209Z,56.10
2019-04-03T11:31:24.980Z,55.26
2019-04-03T11:33:46.213Z,55.50
2019-04-03T11:36:14.337Z,55.62
2019-04-03T11:38:42.907Z,54.96
2019-04-03T11:41:14.513Z,57.42
2019-04-03T11:43:47.479Z,57.46
2019-04-03T11:46:15.438Z,55.23
2019-04-03T11:52:04.638Z,55.01
2019-04-03T11:54:32.871Z,54.38
2019-04-03T11:57:01.453Z,54.66
2019-04-03T11:59:29.831Z,55.00
2019-04-03T12:01:57.756Z,54.00
2019-04-03T12:04:26.096Z,55.63
2019-04-03T12:07:25.681Z,54.72
2019-04-03T12:09:53.141Z,53.37
2019-04-03T12:15:22.287Z,52.33
2019-04-03T12:17:51.078Z,52.20
2019-04-03T12:20:19.641Z,52.81
2019-04-03T12:22:48.662Z,48.50
2019-04-03T12:25:25.406Z,49.75
2019-04-03T12:27:54.586Z,51.87
2019-04-03T12:30:23.212Z,51.76
2019-04-03T12:35:52.800Z,49.61
2019-04-03T12:41:20.305Z,51.86
2019-04-03T12:43:50.027Z,52.01
2019-04-03T12:46:44.718Z,51.93
2019-04-03T12:49:13.327Z,52.41
2019-04-03T12:51:42.200Z,51.00
2019-04-03T12:54:12.798Z,51.39
2019-04-03T12:56:41.457Z,49.32
2019-04-03T12:59:10.144Z,47.77
2019-04-03T13:01:38.931Z,47.56
2019-04-03T13:04:07.685Z,49.68
2019-04-03T13:07:16.277Z,48.85
2019-04-03T13:10:24.638Z,47.38
2019-04-03T13:13:05.153Z,49.62
2019-04-03T13:16:13.616Z,50.54
2019-04-03T13:18:53.138Z,51.59
2019-04-03T13:21:29.727Z,53.43
2019-04-03T13:26:59.734Z,54.69
2019-04-03T13:29:38.316Z,54.71
2019-04-03T13:32:24.118Z,54.31
2019-04-03T13:34:52.619Z,54.11
2019-04-03T13:37:23.640Z,54.54
2019-04-03T13:39:51.973Z,52.90
2019-04-03T13:45:40.061Z,50.55
2019-04-03T13:48:48.354Z,46.74
2019-04-03T13:51:16.208Z,43.99
2019-04-03T13:53:44.727Z,45.31
2019-04-03T13:56:13.177Z,46.47
2019-04-03T13:58:41.171Z,46.93
2019-04-03T14:01:10.052Z,49.03
2019-04-03T14:03:38.566Z,51.28
2019-04-03T14:06:07.465Z,50.73
2019-04-03T14:08:35.747Z,45.54
2019-04-03T14:11:44.468Z,48.25
2019-04-03T14:17:35.949Z,52.96
2019-04-03T14:20:51.442Z,52.57
2019-04-03T14:23:25.447Z,53.19
2019-04-03T14:26:04.024Z,55.32
2019-04-03T14:31:47.982Z,55.87
2019-04-03T14:38:04.702Z,58.26
2019-04-03T14:40:33.839Z,58.18
2019-04-03T14:43:02.158Z,53.88
2019-04-03T14:45:30.053Z,51.87
2019-04-03T14:47:58.703Z,53.67
2019-04-03T14:50:26.601Z,58.19
2019-04-03T14:52:54.664Z,61.27
2019-04-03T14:55:32.058Z,61.78
2019-04-03T14:58:08.196Z,59.20
2019-04-03T15:03:38.172Z,62.92
2019-04-03T15:06:06.936Z,64.91
2019-04-03T15:08:35.223Z,66.58
2019-04-03T15:11:04.472Z,66.98
2019-04-03T15:13:32.721Z,65.68
2019-04-03T15:16:01.205Z,65.74
2019-04-03T15:18:29.460Z,67.19
2019-04-03T15:24:17.797Z,68.80
2019-04-03T15:26:45.727Z,69.56
2019-04-03T15:29:13.288Z,69.93
2019-04-03T15:31:41.407Z,70.35
2019-04-03T15:34:09.768Z,70.63
2019-04-03T15:37:18.590Z,70.50
2019-04-03T15:39:49.045Z,71.21
2019-04-03T15:42:23.544Z,71.51
2019-04-03T15:44:53.127Z,71.49
2019-04-03T15:47:36.586Z,71.92
2019-04-03T15:49:59.868Z,72.09
2019-04-03T15:52:39.303Z,73.10
2019-04-03T15:55:07.366Z,74.17
2019-04-03T15:57:35.828Z,74.93
2019-04-03T16:03:39.059Z,77.15
2019-04-03T16:06:07.676Z,79.91
2019-04-03T16:08:36.239Z,80.94
2019-04-03T16:11:04.936Z,81.44
2019-04-03T16:13:47.059Z,82.26
2019-04-03T16:16:15.109Z,82.21
2019-04-03T16:18:43.574Z,81.88
2019-04-03T16:21:31.647Z,82.81
2019-04-03T16:24:13.150Z,84.12
2019-04-03T16:26:46.292Z,84.33
2019-04-03T16:29:14.524Z,84.50
2019-04-03T16:31:43.322Z,84.93
2019-04-03T16:34:13.006Z,84.58
2019-04-03T16:36:41.979Z,84.44
2019-04-03T16:39:10.428Z,84.22
2019-04-03T16:41:47.285Z,83.90
2019-04-03T16:44:27.513Z,84.98
2019-04-03T16:46:55.375Z,85.75
2019-04-03T16:49:23.377Z,85.43
2019-04-03T16:51:59.026Z,86.19
2019-04-03T16:54:29.112Z,85.56
2019-04-03T16:57:07.929Z,85.56
2019-04-03T16:59:37.246Z,85.02
2019-04-03T17:02:46.158Z,86.01
2019-04-03T17:05:22.327Z,86.40
2019-04-03T17:07:53.171Z,84.31
2019-04-03T17:10:27.324Z,85.48
2019-04-03T17:12:55.354Z,85.47
2019-04-03T17:15:23.751Z,85.93
2019-04-03T17:17:51.631Z,85.26
2019-04-03T17:20:20.360Z,85.96
2019-04-03T17:22:57.133Z,85.29
2019-04-03T17:25:44.061Z,85.45
2019-04-03T17:28:12.920Z,83.68
2019-04-03T17:33:41.646Z,84.86
2019-04-03T17:36:09.622Z,82.88
2019-04-03T17:38:37.892Z,84.74
2019-04-03T17:41:06.977Z,84.62
2019-04-03T17:43:35.863Z,83.01
2019-04-03T17:46:03.709Z,83.59
2019-04-03T17:48:31.639Z,84.21
2019-04-03T17:51:02.372Z,84.52
2019-04-03T17:53:30.223Z,83.81
2019-04-03T17:55:58.484Z,84.45
2019-04-03T17:58:27.263Z,83.83
2019-04-03T18:00:55.727Z,82.67
2019-04-03T18:03:24.232Z,83.26
2019-04-03T18:05:52.875Z,82.85
2019-04-03T18:08:21.227Z,82.64
2019-04-03T18:10:49.930Z,82.34
2019-04-03T18:13:17.997Z,81.88
2019-04-03T18:15:46.780Z,81.44
2019-04-03T18:18:14.773Z,82.75
2019-04-03T18:20:44.631Z,82.58
2019-04-03T18:23:34.427Z,82.77
2019-04-03T18:26:02.386Z,82.78
2019-04-03T18:31:11.790Z,80.95
2019-04-03T18:33:50.908Z,81.45
2019-04-03T18:36:18.902Z,82.28
2019-04-03T18:39:18.498Z,82.01
2019-04-03T18:42:06.115Z,82.19
2019-04-03T18:44:34.495Z,82.26
2019-04-03T18:47:02.941Z,82.14
2019-04-03T18:49:32.357Z,82.67
2019-04-03T18:52:01.529Z,81.54
2019-04-03T18:54:30.097Z,80.27
2019-04-03T18:56:58.364Z,81.66
2019-04-03T18:59:27.073Z,81.24
2019-04-03T19:01:55.558Z,81.17
2019-04-03T19:04:24.146Z,80.30
2019-04-03T19:06:52.597Z,81.78
2019-04-03T19:09:21.263Z,81.58
2019-04-03T19:12:35.319Z,80.57
2019-04-03T19:15:10.566Z,82.24
2019-04-03T19:17:39.387Z,80.84
2019-04-03T19:20:11.543Z,81.11
2019-04-03T19:22:44.215Z,82.75
2019-04-03T19:25:12.138Z,81.06
2019-04-03T19:27:40.093Z,81.25
2019-04-03T19:30:48.778Z,80.85
2019-04-03T19:33:17.150Z,80.94
2019-04-03T19:35:45.716Z,82.22
2019-04-03T19:38:14.113Z,82.28
2019-04-03T19:40:42.299Z,80.75
2019-04-03T19:43:10.289Z,81.82
2019-04-03T19:45:38.474Z,82.64
2019-04-03T19:48:06.739Z,82.86
2019-04-03T19:50:34.789Z,82.49
2019-04-03T19:53:03.104Z,82.26
2019-04-03T19:55:31.684Z,82.19
2019-04-03T19:58:40.277Z,80.82
2019-04-03T20:01:08.719Z,80.31
2019-04-03T20:03:36.291Z,80.13
2019-04-03T20:06:04.208Z,81.03
2019-04-03T20:08:31.882Z,81.96
2019-04-03T20:11:00.460Z,82.23
2019-04-03T20:13:29.126Z,82.60
2019-04-03T20:15:57.448Z,82.18
2019-04-03T20:18:25.984Z,81.71
2019-04-03T20:21:02.006Z,82.08
2019-04-03T20:23:41.542Z,81.97
2019-04-03T20:26:16.315Z,82.42
2019-04-03T20:28:44.139Z,83.06
2019-04-03T20:31:12.718Z,82.97
2019-04-03T20:33:42.150Z,83.38
2019-04-03T20:36:20.895Z,84.13
2019-04-03T20:38:49.573Z,83.58
2019-04-03T20:41:17.122Z,82.85
2019-04-03T20:43:47.338Z,83.60
2019-04-03T20:46:15.320Z,84.12
2019-04-03T20:48:43.592Z,83.45
2019-04-03T20:51:12.161Z,83.83
2019-04-03T20:53:40.459Z,83.07
2019-04-03T20:56:08.739Z,83.21
2019-04-03T20:58:40.026Z,85.81
2019-04-03T21:04:18.813Z,83.42
2019-04-03T21:06:47.399Z,83.51
2019-04-03T21:09:15.989Z,83.93
2019-04-03T21:11:44.164Z,83.66
2019-04-03T21:14:12.902Z,82.83
2019-04-03T21:16:40.377Z,83.38
2019-04-03T21:19:08.955Z,85.17
2019-04-03T21:21:37.301Z,81.34
2019-04-03T21:24:05.911Z,81.66
2019-04-03T21:26:34.187Z,82.39
2019-04-03T21:29:02.344Z,83.30
2019-04-03T21:31:30.639Z,79.09
2019-04-03T21:34:01.578Z,82.15
2019-04-03T21:36:29.028Z,83.66
2019-04-03T21:38:56.921Z,82.78
2019-04-03T21:41:25.503Z,81.03
2019-04-03T21:43:55.472Z,82.14
2019-04-03T21:46:23.529Z,81.90
2019-04-03T21:48:52.009Z,81.39
2019-04-03T21:51:20.880Z,84.54
2019-04-03T21:53:57.377Z,83.21
2019-04-03T21:56:25.707Z,82.90
2019-04-03T21:58:53.959Z,84.24
2019-04-03T22:02:03.281Z,83.62
2019-04-03T22:04:31.495Z,83.93
2019-04-03T22:07:39.843Z,84.11
2019-04-03T22:10:09.266Z,81.69
2019-04-03T22:15:39.240Z,82.92
2019-04-03T22:18:06.808Z,82.70
2019-04-03T22:20:34.715Z,84.02
2019-04-03T22:23:04.885Z,82.43
2019-04-03T22:25:32.625Z,81.58
2019-04-03T22:28:00.559Z,81.04
2019-04-03T22:30:28.467Z,82.59
2019-04-03T22:32:56.444Z,84.43
2019-04-03T22:35:24.669Z,80.66
2019-04-03T22:37:53.237Z,79.84
2019-04-03T22:40:21.251Z,82.25
2019-04-03T22:42:49.436Z,83.70
2019-04-03T22:48:27.473Z,83.80
2019-04-03T22:51:03.188Z,82.46
2019-04-03T22:53:30.990Z,83.83
2019-04-03T22:55:59.563Z,81.75
2019-04-03T22:58:27.829Z,81.73
2019-04-03T23:01:36.448Z,81.90
2019-04-03T23:07:05.659Z,82.21
2019-04-03T23:09:34.219Z,80.69
2019-04-03T23:12:03.539Z,80.46
2019-04-03T23:14:31.910Z,81.45
2019-04-03T23:17:00.266Z,83.63
2019-04-03T23:19:28.812Z,82.18
2019-04-03T23:21:57.274Z,83.45
2019-04-03T23:24:28.504Z,82.52
2019-04-03T23:30:15.914Z,81.24
2019-04-03T23:32:46.077Z,81.66
2019-04-03T23:35:14.550Z,82.86
2019-04-03T23:37:42.848Z,82.29
2019-04-03T23:43:11.814Z,82.19
2019-04-03T23:45:40.035Z,80.41
2019-04-03T23:48:08.195Z,81.83
2019-04-03T23:50:36.078Z,81.59
2019-04-03T23:53:03.958Z,81.41
2019-04-03T23:55:32.444Z,81.33
2019-04-03T23:58:00.957Z,82.83
